sensor_id;sensor_type;location;lat;lon;timestamp;P1;durP1;ratioP1;P2;durP2;ratioP2
9166;SDS011;4618;48.818;9.088;2023-04-24T00:00:21;0.40;;;0.40;;
9166;SDS011;4618;48.818;9.088;2023-04-24T00:02:47;1.60;;;0.60;;
9166;SDS011;4618;48.818;9.088;2023-04-24T00:05:13;0.60;;;0.50;;
9166;SDS011;4618;48.818;9.088;2023-04-24T00:07:43;1.30;;;0.47;;
9166;SDS011;4618;48.818;9.088;2023-04-24T00:10:10;1.60;;;0.60;;
9166;SDS011;4618;48.818;9.088;2023-04-24T00:12:36;1.20;;;0.40;;
9166;SDS011;4618;48.818;9.088;2023-04-24T00:15:02;0.37;;;0.37;;
9166;SDS011;4618;48.818;9.088;2023-04-24T00:17:28;0.57;;;0.40;;
9166;SDS011;4618;48.818;9.088;2023-04-24T00:19:54;3.63;;;0.40;;
9166;SDS011;4618;48.818;9.088;2023-04-24T00:22:29;0.97;;;0.50;;
9166;SDS011;4618;48.818;9.088;2023-04-24T00:24:56;1.60;;;0.60;;
9166;SDS011;4618;48.818;9.088;2023-04-24T00:27:22;0.77;;;0.40;;
9166;SDS011;4618;48.818;9.088;2023-04-24T00:29:48;1.00;;;0.40;;
9166;SDS011;4618;48.818;9.088;2023-04-24T00:32:13;1.07;;;0.40;;
9166;SDS011;4618;48.818;9.088;2023-04-24T00:34:39;1.17;;;0.50;;
9166;SDS011;4618;48.818;9.088;2023-04-24T00:37:05;0.87;;;0.60;;
9166;SDS011;4618;48.818;9.088;2023-04-24T00:39:31;0.77;;;0.40;;
9166;SDS011;4618;48.818;9.088;2023-04-24T00:41:57;0.70;;;0.40;;
9166;SDS011;4618;48.818;9.088;2023-04-24T00:44:22;2.33;;;0.40;;
9166;SDS011;4618;48.818;9.088;2023-04-24T00:46:49;1.73;;;0.30;;
9166;SDS011;4618;48.818;9.088;2023-04-24T00:49:22;0.70;;;0.50;;
9166;SDS011;4618;48.818;9.088;2023-04-24T00:51:48;1.63;;;0.40;;
9166;SDS011;4618;48.818;9.088;2023-04-24T00:54:14;1.37;;;0.40;;
9166;SDS011;4618;48.818;9.088;2023-04-24T00:56:40;1.30;;;0.60;;
9166;SDS011;4618;48.818;9.088;2023-04-24T00:59:07;1.30;;;0.50;;
9166;SDS011;4618;48.818;9.088;2023-04-24T01:01:33;1.40;;;0.40;;
9166;SDS011;4618;48.818;9.088;2023-04-24T01:03:59;0.93;;;0.43;;
9166;SDS011;4618;48.818;9.088;2023-04-24T01:06:27;1.10;;;0.40;;
9166;SDS011;4618;48.818;9.088;2023-04-24T01:08:54;0.73;;;0.33;;
9166;SDS011;4618;48.818;9.088;2023-04-24T01:11:23;1.07;;;0.50;;
9166;SDS011;4618;48.818;9.088;2023-04-24T01:13:50;0.50;;;0.40;;
9166;SDS011;4618;48.818;9.088;2023-04-24T01:16:16;1.03;;;0.40;;
9166;SDS011;4618;48.818;9.088;2023-04-24T01:18:42;1.53;;;0.30;;
9166;SDS011;4618;48.818;9.088;2023-04-24T01:21:09;0.30;;;0.30;;
9166;SDS011;4618;48.818;9.088;2023-04-24T01:23:37;0.87;;;0.30;;
9166;SDS011;4618;48.818;9.088;2023-04-24T01:26:03;1.17;;;0.50;;
9166;SDS011;4618;48.818;9.088;2023-04-24T01:28:29;0.80;;;0.40;;
9166;SDS011;4618;48.818;9.088;2023-04-24T01:30:55;1.30;;;0.33;;
9166;SDS011;4618;48.818;9.088;2023-04-24T01:33:21;1.03;;;0.50;;
9166;SDS011;4618;48.818;9.088;2023-04-24T01:35:47;0.77;;;0.50;;
9166;SDS011;4618;48.818;9.088;2023-04-24T01:38:13;0.30;;;0.30;;
9166;SDS011;4618;48.818;9.088;2023-04-24T01:40:39;0.83;;;0.40;;
9166;SDS011;4618;48.818;9.088;2023-04-24T01:43:05;1.60;;;0.57;;
9166;SDS011;4618;48.818;9.088;2023-04-24T01:45:31;2.30;;;0.37;;
9166;SDS011;4618;48.818;9.088;2023-04-24T01:47:56;0.33;;;0.30;;
9166;SDS011;4618;48.818;9.088;2023-04-24T01:50:22;0.70;;;0.50;;
9166;SDS011;4618;48.818;9.088;2023-04-24T01:52:48;0.63;;;0.30;;
9166;SDS011;4618;48.818;9.088;2023-04-24T01:55:13;1.40;;;0.40;;
9166;SDS011;4618;48.818;9.088;2023-04-24T01:57:39;0.40;;;0.40;;
9166;SDS011;4618;48.818;9.088;2023-04-24T02:00:05;2.43;;;0.50;;
9166;SDS011;4618;48.818;9.088;2023-04-24T02:02:36;1.00;;;0.40;;
9166;SDS011;4618;48.818;9.088;2023-04-24T02:05:02;1.00;;;0.50;;
9166;SDS011;4618;48.818;9.088;2023-04-24T02:07:27;1.00;;;0.40;;
9166;SDS011;4618;48.818;9.088;2023-04-24T02:09:53;1.60;;;0.50;;
9166;SDS011;4618;48.818;9.088;2023-04-24T02:12:20;1.50;;;0.53;;
9166;SDS011;4618;48.818;9.088;2023-04-24T02:14:46;2.23;;;0.60;;
9166;SDS011;4618;48.818;9.088;2023-04-24T02:17:11;0.60;;;0.40;;
9166;SDS011;4618;48.818;9.088;2023-04-24T02:19:38;1.43;;;0.50;;
9166;SDS011;4618;48.818;9.088;2023-04-24T02:22:04;0.93;;;0.37;;
9166;SDS011;4618;48.818;9.088;2023-04-24T02:24:29;1.77;;;0.50;;
9166;SDS011;4618;48.818;9.088;2023-04-24T02:26:55;0.83;;;0.50;;
9166;SDS011;4618;48.818;9.088;2023-04-24T02:29:20;1.77;;;0.80;;
9166;SDS011;4618;48.818;9.088;2023-04-24T02:31:46;1.50;;;0.70;;
9166;SDS011;4618;48.818;9.088;2023-04-24T02:34:11;2.47;;;0.60;;
9166;SDS011;4618;48.818;9.088;2023-04-24T02:36:37;1.07;;;0.50;;
9166;SDS011;4618;48.818;9.088;2023-04-24T02:39:03;0.80;;;0.50;;
9166;SDS011;4618;48.818;9.088;2023-04-24T02:41:28;1.07;;;0.50;;
9166;SDS011;4618;48.818;9.088;2023-04-24T02:43:57;1.60;;;0.53;;
9166;SDS011;4618;48.818;9.088;2023-04-24T02:46:23;1.17;;;0.67;;
9166;SDS011;4618;48.818;9.088;2023-04-24T02:48:48;2.23;;;0.87;;
9166;SDS011;4618;48.818;9.088;2023-04-24T02:51:14;1.30;;;0.50;;
9166;SDS011;4618;48.818;9.088;2023-04-24T02:53:39;1.07;;;0.50;;
9166;SDS011;4618;48.818;9.088;2023-04-24T02:56:05;1.73;;;0.70;;
9166;SDS011;4618;48.818;9.088;2023-04-24T02:58:31;1.60;;;0.70;;
9166;SDS011;4618;48.818;9.088;2023-04-24T03:00:56;2.90;;;0.50;;
9166;SDS011;4618;48.818;9.088;2023-04-24T03:03:23;2.07;;;0.70;;
9166;SDS011;4618;48.818;9.088;2023-04-24T03:05:48;1.37;;;0.60;;
9166;SDS011;4618;48.818;9.088;2023-04-24T03:08:14;0.73;;;0.60;;
9166;SDS011;4618;48.818;9.088;2023-04-24T03:10:40;1.27;;;0.70;;
9166;SDS011;4618;48.818;9.088;2023-04-24T03:13:05;2.57;;;1.00;;
9166;SDS011;4618;48.818;9.088;2023-04-24T03:15:31;1.13;;;0.53;;
9166;SDS011;4618;48.818;9.088;2023-04-24T03:17:57;3.00;;;0.60;;
9166;SDS011;4618;48.818;9.088;2023-04-24T03:20:22;1.70;;;0.57;;
9166;SDS011;4618;48.818;9.088;2023-04-24T03:22:48;1.67;;;0.60;;
9166;SDS011;4618;48.818;9.088;2023-04-24T03:25:13;2.33;;;0.60;;
9166;SDS011;4618;48.818;9.088;2023-04-24T03:27:39;2.20;;;0.70;;
9166;SDS011;4618;48.818;9.088;2023-04-24T03:30:05;1.80;;;0.80;;
9166;SDS011;4618;48.818;9.088;2023-04-24T03:32:32;3.60;;;0.60;;
9166;SDS011;4618;48.818;9.088;2023-04-24T03:34:57;1.40;;;0.40;;
9166;SDS011;4618;48.818;9.088;2023-04-24T03:37:23;0.97;;;0.70;;
9166;SDS011;4618;48.818;9.088;2023-04-24T03:39:48;1.23;;;0.47;;
9166;SDS011;4618;48.818;9.088;2023-04-24T03:42:14;1.30;;;0.60;;
9166;SDS011;4618;48.818;9.088;2023-04-24T03:44:40;0.40;;;0.40;;
9166;SDS011;4618;48.818;9.088;2023-04-24T03:47:05;0.90;;;0.60;;
9166;SDS011;4618;48.818;9.088;2023-04-24T03:49:31;2.57;;;0.60;;
9166;SDS011;4618;48.818;9.088;2023-04-24T03:51:56;3.53;;;0.60;;
9166;SDS011;4618;48.818;9.088;2023-04-24T03:54:22;1.93;;;0.47;;
9166;SDS011;4618;48.818;9.088;2023-04-24T03:56:48;2.00;;;0.70;;
9166;SDS011;4618;48.818;9.088;2023-04-24T03:59:13;0.90;;;0.50;;
9166;SDS011;4618;48.818;9.088;2023-04-24T04:01:39;0.67;;;0.33;;
9166;SDS011;4618;48.818;9.088;2023-04-24T04:04:04;0.60;;;0.43;;
9166;SDS011;4618;48.818;9.088;2023-04-24T04:06:30;1.53;;;0.57;;
9166;SDS011;4618;48.818;9.088;2023-04-24T04:08:56;0.87;;;0.50;;
9166;SDS011;4618;48.818;9.088;2023-04-24T04:11:22;1.90;;;0.60;;
9166;SDS011;4618;48.818;9.088;2023-04-24T04:13:48;0.70;;;0.40;;
9166;SDS011;4618;48.818;9.088;2023-04-24T04:16:14;2.27;;;0.53;;
9166;SDS011;4618;48.818;9.088;2023-04-24T04:18:41;1.23;;;0.50;;
9166;SDS011;4618;48.818;9.088;2023-04-24T04:21:07;0.60;;;0.50;;
9166;SDS011;4618;48.818;9.088;2023-04-24T04:23:33;2.63;;;0.70;;
9166;SDS011;4618;48.818;9.088;2023-04-24T04:25:58;0.77;;;0.60;;
9166;SDS011;4618;48.818;9.088;2023-04-24T04:28:24;1.63;;;0.60;;
9166;SDS011;4618;48.818;9.088;2023-04-24T04:30:51;1.00;;;0.70;;
9166;SDS011;4618;48.818;9.088;2023-04-24T04:33:19;0.87;;;0.80;;
9166;SDS011;4618;48.818;9.088;2023-04-24T04:35:45;1.90;;;0.70;;
9166;SDS011;4618;48.818;9.088;2023-04-24T04:38:14;1.53;;;0.90;;
9166;SDS011;4618;48.818;9.088;2023-04-24T04:40:40;1.37;;;0.70;;
9166;SDS011;4618;48.818;9.088;2023-04-24T04:43:06;2.37;;;0.70;;
9166;SDS011;4618;48.818;9.088;2023-04-24T04:45:31;0.87;;;0.60;;
9166;SDS011;4618;48.818;9.088;2023-04-24T04:47:59;1.10;;;1.00;;
9166;SDS011;4618;48.818;9.088;2023-04-24T04:50:25;1.13;;;0.80;;
9166;SDS011;4618;48.818;9.088;2023-04-24T04:52:52;1.43;;;0.80;;
9166;SDS011;4618;48.818;9.088;2023-04-24T04:55:17;0.83;;;0.83;;
9166;SDS011;4618;48.818;9.088;2023-04-24T04:57:44;1.37;;;0.90;;
9166;SDS011;4618;48.818;9.088;2023-04-24T05:00:11;1.20;;;0.73;;
9166;SDS011;4618;48.818;9.088;2023-04-24T05:02:37;0.83;;;0.70;;
9166;SDS011;4618;48.818;9.088;2023-04-24T05:05:03;1.00;;;0.90;;
9166;SDS011;4618;48.818;9.088;2023-04-24T05:07:28;1.47;;;0.60;;
9166;SDS011;4618;48.818;9.088;2023-04-24T05:09:54;1.23;;;0.80;;
9166;SDS011;4618;48.818;9.088;2023-04-24T05:12:20;1.27;;;0.90;;
9166;SDS011;4618;48.818;9.088;2023-04-24T05:14:45;1.43;;;0.70;;
9166;SDS011;4618;48.818;9.088;2023-04-24T05:17:11;0.77;;;0.77;;
9166;SDS011;4618;48.818;9.088;2023-04-24T05:19:36;0.77;;;0.60;;
9166;SDS011;4618;48.818;9.088;2023-04-24T05:22:03;2.13;;;0.73;;
9166;SDS011;4618;48.818;9.088;2023-04-24T05:24:31;0.60;;;0.50;;
9166;SDS011;4618;48.818;9.088;2023-04-24T05:26:58;0.60;;;0.60;;
9166;SDS011;4618;48.818;9.088;2023-04-24T05:29:23;0.70;;;0.70;;
9166;SDS011;4618;48.818;9.088;2023-04-24T05:31:51;0.90;;;0.90;;
9166;SDS011;4618;48.818;9.088;2023-04-24T05:34:16;1.37;;;0.80;;
9166;SDS011;4618;48.818;9.088;2023-04-24T05:36:42;1.53;;;0.77;;
9166;SDS011;4618;48.818;9.088;2023-04-24T05:39:08;1.53;;;0.87;;
9166;SDS011;4618;48.818;9.088;2023-04-24T05:41:33;1.50;;;1.00;;
9166;SDS011;4618;48.818;9.088;2023-04-24T05:43:59;1.80;;;0.90;;
9166;SDS011;4618;48.818;9.088;2023-04-24T05:46:25;1.67;;;0.87;;
9166;SDS011;4618;48.818;9.088;2023-04-24T05:48:50;1.30;;;1.00;;
9166;SDS011;4618;48.818;9.088;2023-04-24T05:51:16;1.43;;;1.03;;
9166;SDS011;4618;48.818;9.088;2023-04-24T05:53:41;1.37;;;1.10;;
9166;SDS011;4618;48.818;9.088;2023-04-24T05:56:07;3.00;;;1.10;;
9166;SDS011;4618;48.818;9.088;2023-04-24T05:58:32;2.03;;;1.23;;
9166;SDS011;4618;48.818;9.088;2023-04-24T06:00:58;1.00;;;1.00;;
9166;SDS011;4618;48.818;9.088;2023-04-24T06:03:25;1.30;;;1.30;;
9166;SDS011;4618;48.818;9.088;2023-04-24T06:05:52;1.67;;;1.13;;
9166;SDS011;4618;48.818;9.088;2023-04-24T06:08:18;1.23;;;1.20;;
9166;SDS011;4618;48.818;9.088;2023-04-24T06:10:44;1.37;;;1.10;;
9166;SDS011;4618;48.818;9.088;2023-04-24T06:13:10;1.50;;;1.40;;
9166;SDS011;4618;48.818;9.088;2023-04-24T06:15:36;2.00;;;1.50;;
9166;SDS011;4618;48.818;9.088;2023-04-24T06:18:01;1.37;;;1.20;;
9166;SDS011;4618;48.818;9.088;2023-04-24T06:20:27;1.40;;;1.30;;
9166;SDS011;4618;48.818;9.088;2023-04-24T06:22:53;1.30;;;1.20;;
9166;SDS011;4618;48.818;9.088;2023-04-24T06:25:19;1.33;;;1.10;;
9166;SDS011;4618;48.818;9.088;2023-04-24T06:27:45;3.57;;;1.70;;
9166;SDS011;4618;48.818;9.088;2023-04-24T06:30:11;1.97;;;1.00;;
9166;SDS011;4618;48.818;9.088;2023-04-24T06:32:37;1.40;;;1.00;;
9166;SDS011;4618;48.818;9.088;2023-04-24T06:35:02;1.90;;;1.30;;
9166;SDS011;4618;48.818;9.088;2023-04-24T06:37:29;1.20;;;1.10;;
9166;SDS011;4618;48.818;9.088;2023-04-24T06:39:54;1.93;;;1.20;;
9166;SDS011;4618;48.818;9.088;2023-04-24T06:42:20;1.30;;;1.20;;
9166;SDS011;4618;48.818;9.088;2023-04-24T06:44:46;2.03;;;1.10;;
9166;SDS011;4618;48.818;9.088;2023-04-24T06:47:12;1.67;;;1.10;;
9166;SDS011;4618;48.818;9.088;2023-04-24T06:49:38;1.10;;;1.10;;
9166;SDS011;4618;48.818;9.088;2023-04-24T06:52:05;1.10;;;1.00;;
9166;SDS011;4618;48.818;9.088;2023-04-24T06:54:31;1.23;;;1.00;;
9166;SDS011;4618;48.818;9.088;2023-04-24T06:56:57;1.40;;;1.27;;
9166;SDS011;4618;48.818;9.088;2023-04-24T06:59:23;1.43;;;1.33;;
9166;SDS011;4618;48.818;9.088;2023-04-24T07:01:49;1.23;;;1.13;;
9166;SDS011;4618;48.818;9.088;2023-04-24T07:04:16;2.03;;;1.20;;
9166;SDS011;4618;48.818;9.088;2023-04-24T07:06:42;1.43;;;1.33;;
9166;SDS011;4618;48.818;9.088;2023-04-24T07:09:08;1.20;;;1.10;;
9166;SDS011;4618;48.818;9.088;2023-04-24T07:11:34;1.53;;;1.10;;
9166;SDS011;4618;48.818;9.088;2023-04-24T07:14:01;1.27;;;0.97;;
9166;SDS011;4618;48.818;9.088;2023-04-24T07:16:27;1.37;;;0.93;;
9166;SDS011;4618;48.818;9.088;2023-04-24T07:18:53;1.30;;;1.00;;
9166;SDS011;4618;48.818;9.088;2023-04-24T07:21:19;1.10;;;0.90;;
9166;SDS011;4618;48.818;9.088;2023-04-24T07:23:44;1.43;;;1.10;;
9166;SDS011;4618;48.818;9.088;2023-04-24T07:26:10;1.33;;;0.90;;
9166;SDS011;4618;48.818;9.088;2023-04-24T07:28:39;2.10;;;1.10;;
9166;SDS011;4618;48.818;9.088;2023-04-24T07:31:06;1.60;;;1.20;;
9166;SDS011;4618;48.818;9.088;2023-04-24T07:33:33;1.03;;;0.97;;
9166;SDS011;4618;48.818;9.088;2023-04-24T07:35:59;2.17;;;1.10;;
9166;SDS011;4618;48.818;9.088;2023-04-24T07:38:25;0.83;;;0.83;;
9166;SDS011;4618;48.818;9.088;2023-04-24T07:40:51;0.80;;;0.80;;
9166;SDS011;4618;48.818;9.088;2023-04-24T07:43:17;0.70;;;0.63;;
9166;SDS011;4618;48.818;9.088;2023-04-24T07:45:43;2.77;;;0.73;;
9166;SDS011;4618;48.818;9.088;2023-04-24T07:48:08;2.33;;;1.00;;
9166;SDS011;4618;48.818;9.088;2023-04-24T07:50:35;1.97;;;0.90;;
9166;SDS011;4618;48.818;9.088;2023-04-24T07:53:01;1.43;;;0.90;;
9166;SDS011;4618;48.818;9.088;2023-04-24T07:55:27;1.47;;;0.80;;
9166;SDS011;4618;48.818;9.088;2023-04-24T07:57:53;2.60;;;0.90;;
9166;SDS011;4618;48.818;9.088;2023-04-24T08:00:18;3.20;;;0.70;;
9166;SDS011;4618;48.818;9.088;2023-04-24T08:02:47;1.10;;;0.70;;
9166;SDS011;4618;48.818;9.088;2023-04-24T08:05:12;1.40;;;0.93;;
9166;SDS011;4618;48.818;9.088;2023-04-24T08:07:38;1.33;;;0.80;;
9166;SDS011;4618;48.818;9.088;2023-04-24T08:10:04;1.40;;;0.90;;
9166;SDS011;4618;48.818;9.088;2023-04-24T08:12:30;1.60;;;1.10;;
9166;SDS011;4618;48.818;9.088;2023-04-24T08:14:56;3.43;;;0.97;;
9166;SDS011;4618;48.818;9.088;2023-04-24T08:17:21;0.90;;;0.90;;
9166;SDS011;4618;48.818;9.088;2023-04-24T08:19:47;1.53;;;0.70;;
9166;SDS011;4618;48.818;9.088;2023-04-24T08:22:16;2.43;;;0.90;;
9166;SDS011;4618;48.818;9.088;2023-04-24T08:24:42;1.47;;;0.80;;
9166;SDS011;4618;48.818;9.088;2023-04-24T08:27:08;1.07;;;0.93;;
9166;SDS011;4618;48.818;9.088;2023-04-24T08:29:34;0.90;;;0.80;;
9166;SDS011;4618;48.818;9.088;2023-04-24T08:32:00;1.33;;;0.90;;
9166;SDS011;4618;48.818;9.088;2023-04-24T08:34:25;0.70;;;0.70;;
9166;SDS011;4618;48.818;9.088;2023-04-24T08:36:51;1.60;;;1.00;;
9166;SDS011;4618;48.818;9.088;2023-04-24T08:39:16;1.27;;;1.00;;
9166;SDS011;4618;48.818;9.088;2023-04-24T08:41:43;1.17;;;1.00;;
9166;SDS011;4618;48.818;9.088;2023-04-24T08:44:10;0.77;;;0.77;;
9166;SDS011;4618;48.818;9.088;2023-04-24T08:46:37;2.90;;;0.90;;
9166;SDS011;4618;48.818;9.088;2023-04-24T08:49:04;1.40;;;1.07;;
9166;SDS011;4618;48.818;9.088;2023-04-24T08:51:30;0.93;;;0.90;;
9166;SDS011;4618;48.818;9.088;2023-04-24T08:53:56;2.20;;;0.90;;
9166;SDS011;4618;48.818;9.088;2023-04-24T08:56:22;1.93;;;0.90;;
9166;SDS011;4618;48.818;9.088;2023-04-24T08:58:50;1.43;;;0.80;;
9166;SDS011;4618;48.818;9.088;2023-04-24T09:01:15;2.17;;;0.80;;
9166;SDS011;4618;48.818;9.088;2023-04-24T09:03:43;1.67;;;1.10;;
9166;SDS011;4618;48.818;9.088;2023-04-24T09:06:08;1.90;;;0.93;;
9166;SDS011;4618;48.818;9.088;2023-04-24T09:08:35;0.80;;;0.80;;
9166;SDS011;4618;48.818;9.088;2023-04-24T09:11:01;0.80;;;0.77;;
9166;SDS011;4618;48.818;9.088;2023-04-24T09:13:28;3.20;;;0.93;;
9166;SDS011;4618;48.818;9.088;2023-04-24T09:15:55;1.10;;;1.00;;
9166;SDS011;4618;48.818;9.088;2023-04-24T09:18:22;1.70;;;0.90;;
9166;SDS011;4618;48.818;9.088;2023-04-24T09:21:01;1.60;;;1.03;;
9166;SDS011;4618;48.818;9.088;2023-04-24T09:23:33;0.73;;;0.73;;
9166;SDS011;4618;48.818;9.088;2023-04-24T09:25:59;0.90;;;0.70;;
9166;SDS011;4618;48.818;9.088;2023-04-24T09:28:37;1.00;;;0.67;;
9166;SDS011;4618;48.818;9.088;2023-04-24T09:33:40;2.57;;;1.00;;
9166;SDS011;4618;48.818;9.088;2023-04-24T09:36:32;1.13;;;0.83;;
9166;SDS011;4618;48.818;9.088;2023-04-24T09:38:59;1.57;;;0.80;;
9166;SDS011;4618;48.818;9.088;2023-04-24T09:41:26;2.90;;;0.90;;
9166;SDS011;4618;48.818;9.088;2023-04-24T09:43:56;1.17;;;0.90;;
9166;SDS011;4618;48.818;9.088;2023-04-24T09:46:29;2.20;;;1.03;;
9166;SDS011;4618;48.818;9.088;2023-04-24T09:48:56;0.97;;;0.70;;
9166;SDS011;4618;48.818;9.088;2023-04-24T09:51:33;0.57;;;0.57;;
9166;SDS011;4618;48.818;9.088;2023-04-24T09:54:01;0.67;;;0.57;;
9166;SDS011;4618;48.818;9.088;2023-04-24T09:56:28;3.10;;;0.80;;
9166;SDS011;4618;48.818;9.088;2023-04-24T09:59:03;1.23;;;0.80;;
9166;SDS011;4618;48.818;9.088;2023-04-24T10:01:32;1.73;;;0.70;;
9166;SDS011;4618;48.818;9.088;2023-04-24T10:03:58;1.53;;;0.70;;
9166;SDS011;4618;48.818;9.088;2023-04-24T10:06:34;1.43;;;0.67;;
9166;SDS011;4618;48.818;9.088;2023-04-24T10:09:00;0.50;;;0.50;;
9166;SDS011;4618;48.818;9.088;2023-04-24T10:11:27;0.80;;;0.80;;
9166;SDS011;4618;48.818;9.088;2023-04-24T10:13:53;1.20;;;0.70;;
9166;SDS011;4618;48.818;9.088;2023-04-24T10:16:18;3.80;;;0.63;;
9166;SDS011;4618;48.818;9.088;2023-04-24T10:18:46;0.87;;;0.60;;
9166;SDS011;4618;48.818;9.088;2023-04-24T10:21:14;0.50;;;0.50;;
9166;SDS011;4618;48.818;9.088;2023-04-24T10:23:41;0.57;;;0.57;;
9166;SDS011;4618;48.818;9.088;2023-04-24T10:26:10;0.77;;;0.50;;
9166;SDS011;4618;48.818;9.088;2023-04-24T10:28:42;1.13;;;0.70;;
9166;SDS011;4618;48.818;9.088;2023-04-24T10:31:10;0.80;;;0.80;;
9166;SDS011;4618;48.818;9.088;2023-04-24T10:33:36;1.40;;;1.00;;
9166;SDS011;4618;48.818;9.088;2023-04-24T10:36:06;1.30;;;0.80;;
9166;SDS011;4618;48.818;9.088;2023-04-24T10:38:34;0.97;;;0.80;;
9166;SDS011;4618;48.818;9.088;2023-04-24T10:41:11;1.73;;;0.80;;
9166;SDS011;4618;48.818;9.088;2023-04-24T10:43:48;0.93;;;0.80;;
9166;SDS011;4618;48.818;9.088;2023-04-24T10:46:29;1.23;;;0.90;;
9166;SDS011;4618;48.818;9.088;2023-04-24T10:48:55;0.80;;;0.80;;
9166;SDS011;4618;48.818;9.088;2023-04-24T10:51:22;0.70;;;0.70;;
9166;SDS011;4618;48.818;9.088;2023-04-24T10:53:49;1.47;;;0.60;;
9166;SDS011;4618;48.818;9.088;2023-04-24T10:56:16;0.70;;;0.70;;
9166;SDS011;4618;48.818;9.088;2023-04-24T10:58:43;0.97;;;0.80;;
9166;SDS011;4618;48.818;9.088;2023-04-24T11:01:32;1.30;;;0.70;;
9166;SDS011;4618;48.818;9.088;2023-04-24T11:04:02;0.97;;;0.80;;
9166;SDS011;4618;48.818;9.088;2023-04-24T11:06:37;1.50;;;0.70;;
9166;SDS011;4618;48.818;9.088;2023-04-24T11:09:06;1.47;;;0.80;;
9166;SDS011;4618;48.818;9.088;2023-04-24T11:11:34;1.83;;;0.80;;
9166;SDS011;4618;48.818;9.088;2023-04-24T11:14:01;1.27;;;0.90;;
9166;SDS011;4618;48.818;9.088;2023-04-24T11:19:23;0.73;;;0.67;;
9166;SDS011;4618;48.818;9.088;2023-04-24T11:22:02;3.43;;;0.90;;
9166;SDS011;4618;48.818;9.088;2023-04-24T11:32:16;1.40;;;0.73;;
9166;SDS011;4618;48.818;9.088;2023-04-24T11:34:48;2.37;;;0.97;;
9166;SDS011;4618;48.818;9.088;2023-04-24T11:37:15;0.70;;;0.70;;
9166;SDS011;4618;48.818;9.088;2023-04-24T11:39:41;1.43;;;0.97;;
9166;SDS011;4618;48.818;9.088;2023-04-24T11:42:07;1.17;;;0.80;;
9166;SDS011;4618;48.818;9.088;2023-04-24T11:44:39;2.00;;;0.90;;
9166;SDS011;4618;48.818;9.088;2023-04-24T11:47:06;1.13;;;0.80;;
9166;SDS011;4618;48.818;9.088;2023-04-24T11:49:32;1.23;;;0.80;;
9166;SDS011;4618;48.818;9.088;2023-04-24T11:51:57;2.20;;;0.90;;
9166;SDS011;4618;48.818;9.088;2023-04-24T11:54:25;1.43;;;0.70;;
9166;SDS011;4618;48.818;9.088;2023-04-24T11:56:51;3.53;;;1.00;;
9166;SDS011;4618;48.818;9.088;2023-04-24T11:59:16;1.47;;;0.80;;
9166;SDS011;4618;48.818;9.088;2023-04-24T12:01:43;0.60;;;0.60;;
9166;SDS011;4618;48.818;9.088;2023-04-24T12:04:11;0.80;;;0.80;;
9166;SDS011;4618;48.818;9.088;2023-04-24T12:06:38;1.30;;;1.20;;
9166;SDS011;4618;48.818;9.088;2023-04-24T12:09:03;1.37;;;0.90;;
9166;SDS011;4618;48.818;9.088;2023-04-24T12:11:29;1.63;;;1.00;;
9166;SDS011;4618;48.818;9.088;2023-04-24T12:13:55;1.70;;;1.00;;
9166;SDS011;4618;48.818;9.088;2023-04-24T12:16:21;0.77;;;0.77;;
9166;SDS011;4618;48.818;9.088;2023-04-24T12:18:46;1.67;;;0.77;;
9166;SDS011;4618;48.818;9.088;2023-04-24T12:21:15;2.40;;;0.70;;
9166;SDS011;4618;48.818;9.088;2023-04-24T12:23:45;1.53;;;0.80;;
9166;SDS011;4618;48.818;9.088;2023-04-24T12:26:20;1.03;;;0.80;;
9166;SDS011;4618;48.818;9.088;2023-04-24T12:28:47;1.20;;;1.00;;
9166;SDS011;4618;48.818;9.088;2023-04-24T12:31:14;1.33;;;0.90;;
9166;SDS011;4618;48.818;9.088;2023-04-24T12:33:40;1.13;;;0.90;;
9166;SDS011;4618;48.818;9.088;2023-04-24T12:36:06;1.63;;;1.10;;
9166;SDS011;4618;48.818;9.088;2023-04-24T12:38:35;1.93;;;1.20;;
9166;SDS011;4618;48.818;9.088;2023-04-24T12:41:06;0.70;;;0.70;;
9166;SDS011;4618;48.818;9.088;2023-04-24T12:43:33;1.00;;;0.90;;
9166;SDS011;4618;48.818;9.088;2023-04-24T12:45:59;0.93;;;0.93;;
9166;SDS011;4618;48.818;9.088;2023-04-24T12:48:26;2.63;;;0.80;;
9166;SDS011;4618;48.818;9.088;2023-04-24T12:50:52;1.10;;;1.00;;
9166;SDS011;4618;48.818;9.088;2023-04-24T12:53:17;0.90;;;0.80;;
9166;SDS011;4618;48.818;9.088;2023-04-24T12:55:43;1.10;;;1.00;;
9166;SDS011;4618;48.818;9.088;2023-04-24T12:58:10;1.47;;;0.90;;
9166;SDS011;4618;48.818;9.088;2023-04-24T13:00:35;0.83;;;0.77;;
9166;SDS011;4618;48.818;9.088;2023-04-24T13:03:01;0.73;;;0.73;;
9166;SDS011;4618;48.818;9.088;2023-04-24T13:05:27;0.90;;;0.90;;
9166;SDS011;4618;48.818;9.088;2023-04-24T13:07:53;1.60;;;1.10;;
9166;SDS011;4618;48.818;9.088;2023-04-24T13:10:18;1.17;;;1.07;;
9166;SDS011;4618;48.818;9.088;2023-04-24T13:12:44;1.50;;;1.20;;
9166;SDS011;4618;48.818;9.088;2023-04-24T13:15:11;2.27;;;0.90;;
9166;SDS011;4618;48.818;9.088;2023-04-24T13:17:36;2.63;;;1.43;;
9166;SDS011;4618;48.818;9.088;2023-04-24T13:20:02;1.37;;;1.23;;
9166;SDS011;4618;48.818;9.088;2023-04-24T13:22:28;3.53;;;1.50;;
9166;SDS011;4618;48.818;9.088;2023-04-24T13:24:54;1.37;;;1.13;;
9166;SDS011;4618;48.818;9.088;2023-04-24T13:27:19;1.70;;;1.20;;
9166;SDS011;4618;48.818;9.088;2023-04-24T13:29:45;1.20;;;1.10;;
9166;SDS011;4618;48.818;9.088;2023-04-24T13:32:11;1.00;;;1.00;;
9166;SDS011;4618;48.818;9.088;2023-04-24T13:34:36;3.60;;;1.33;;
9166;SDS011;4618;48.818;9.088;2023-04-24T13:37:02;4.63;;;1.27;;
9166;SDS011;4618;48.818;9.088;2023-04-24T13:39:28;1.73;;;1.10;;
9166;SDS011;4618;48.818;9.088;2023-04-24T13:41:54;0.93;;;0.80;;
9166;SDS011;4618;48.818;9.088;2023-04-24T13:44:20;1.00;;;1.00;;
9166;SDS011;4618;48.818;9.088;2023-04-24T13:46:48;0.80;;;0.80;;
9166;SDS011;4618;48.818;9.088;2023-04-24T13:49:16;0.60;;;0.50;;
9166;SDS011;4618;48.818;9.088;2023-04-24T13:51:42;0.87;;;0.87;;
9166;SDS011;4618;48.818;9.088;2023-04-24T13:54:08;1.43;;;0.73;;
9166;SDS011;4618;48.818;9.088;2023-04-24T13:56:34;0.93;;;0.90;;
9166;SDS011;4618;48.818;9.088;2023-04-24T13:59:00;1.70;;;0.97;;
9166;SDS011;4618;48.818;9.088;2023-04-24T14:01:25;0.80;;;0.80;;
9166;SDS011;4618;48.818;9.088;2023-04-24T14:03:51;1.27;;;0.73;;
9166;SDS011;4618;48.818;9.088;2023-04-24T14:06:21;1.30;;;0.97;;
9166;SDS011;4618;48.818;9.088;2023-04-24T14:08:47;0.83;;;0.80;;
9166;SDS011;4618;48.818;9.088;2023-04-24T14:11:13;0.97;;;0.97;;
9166;SDS011;4618;48.818;9.088;2023-04-24T14:13:40;1.07;;;0.90;;
9166;SDS011;4618;48.818;9.088;2023-04-24T14:16:06;1.27;;;1.17;;
9166;SDS011;4618;48.818;9.088;2023-04-24T14:18:32;1.37;;;0.90;;
9166;SDS011;4618;48.818;9.088;2023-04-24T14:20:58;1.47;;;0.97;;
9166;SDS011;4618;48.818;9.088;2023-04-24T14:23:26;0.97;;;0.93;;
9166;SDS011;4618;48.818;9.088;2023-04-24T14:25:51;1.00;;;0.90;;
9166;SDS011;4618;48.818;9.088;2023-04-24T14:28:18;2.83;;;1.27;;
9166;SDS011;4618;48.818;9.088;2023-04-24T14:30:44;2.27;;;0.90;;
9166;SDS011;4618;48.818;9.088;2023-04-24T14:33:10;1.53;;;0.90;;
9166;SDS011;4618;48.818;9.088;2023-04-24T14:35:36;1.10;;;1.10;;
9166;SDS011;4618;48.818;9.088;2023-04-24T14:38:02;1.30;;;1.20;;
9166;SDS011;4618;48.818;9.088;2023-04-24T14:40:28;1.13;;;1.00;;
9166;SDS011;4618;48.818;9.088;2023-04-24T14:42:53;1.20;;;1.10;;
9166;SDS011;4618;48.818;9.088;2023-04-24T14:45:19;1.40;;;1.30;;
9166;SDS011;4618;48.818;9.088;2023-04-24T14:47:44;1.60;;;1.10;;
9166;SDS011;4618;48.818;9.088;2023-04-24T14:50:10;1.73;;;1.30;;
9166;SDS011;4618;48.818;9.088;2023-04-24T14:52:37;1.27;;;1.17;;
9166;SDS011;4618;48.818;9.088;2023-04-24T14:55:03;1.43;;;1.27;;
9166;SDS011;4618;48.818;9.088;2023-04-24T14:57:29;1.60;;;1.13;;
9166;SDS011;4618;48.818;9.088;2023-04-24T14:59:55;2.87;;;1.10;;
9166;SDS011;4618;48.818;9.088;2023-04-24T15:02:20;1.20;;;1.10;;
9166;SDS011;4618;48.818;9.088;2023-04-24T15:04:46;1.37;;;1.10;;
9166;SDS011;4618;48.818;9.088;2023-04-24T15:07:11;1.73;;;1.20;;
9166;SDS011;4618;48.818;9.088;2023-04-24T15:09:37;1.83;;;1.23;;
9166;SDS011;4618;48.818;9.088;2023-04-24T15:12:03;1.17;;;1.13;;
9166;SDS011;4618;48.818;9.088;2023-04-24T15:14:28;2.50;;;1.13;;
9166;SDS011;4618;48.818;9.088;2023-04-24T15:16:54;1.43;;;1.23;;
9166;SDS011;4618;48.818;9.088;2023-04-24T15:19:20;1.33;;;1.20;;
9166;SDS011;4618;48.818;9.088;2023-04-24T15:21:45;2.00;;;1.20;;
9166;SDS011;4618;48.818;9.088;2023-04-24T15:24:11;1.30;;;1.20;;